createdAt,value
2018-03-25T00:01:06.893Z,100122.13
2018-03-25T00:03:42.002Z,100124.23
2018-03-25T00:06:16.961Z,100130.83
2018-03-25T00:08:51.804Z,100118.80
2018-03-25T00:11:26.828Z,100119.64
2018-03-25T00:14:02.104Z,100120.54
2018-03-25T00:16:36.883Z,100120.97
2018-03-25T00:19:12.081Z,100133.64
2018-03-25T00:21:47.236Z,100126.58
2018-03-25T00:24:22.134Z,100133.58
2018-03-25T00:26:57.134Z,100128.61
2018-03-25T00:29:32.042Z,100130.50
2018-03-25T00:32:07.233Z,100141.22
2018-03-25T00:34:42.214Z,100134.59
2018-03-25T00:37:17.093Z,100132.83
2018-03-25T00:39:52.125Z,100132.04
2018-03-25T00:42:26.984Z,100131.16
2018-03-25T00:45:02.004Z,100137.52
2018-03-25T00:47:36.910Z,100127.64
2018-03-25T00:50:11.757Z,100127.00
2018-03-25T00:52:46.891Z,100132.52
2018-03-25T00:55:21.947Z,100127.63
2018-03-25T00:57:57.118Z,100129.45
2018-03-25T01:00:31.871Z,100132.31
2018-03-25T01:03:07.020Z,100131.67
2018-03-25T01:05:41.920Z,100133.70
2018-03-25T01:08:16.826Z,100130.00
2018-03-25T01:10:51.562Z,100127.80
2018-03-25T01:13:26.578Z,100125.22
2018-03-25T01:16:10.713Z,100124.75
2018-03-25T01:18:45.486Z,100126.30
2018-03-25T01:21:20.640Z,100130.84
2018-03-25T01:23:55.483Z,100130.49
2018-03-25T01:26:30.831Z,100135.48
2018-03-25T01:29:06.030Z,100126.41
2018-03-25T01:31:40.995Z,100123.86
2018-03-25T01:34:16.046Z,100132.67
2018-03-25T01:36:51.242Z,100131.14
2018-03-25T01:39:26.122Z,100127.42
2018-03-25T01:42:01.127Z,100128.51
2018-03-25T01:44:35.994Z,100131.34
2018-03-25T01:47:10.535Z,100124.48
2018-03-25T01:49:45.496Z,100129.06
2018-03-25T01:52:20.955Z,100124.95
2018-03-25T01:54:55.571Z,100120.56
2018-03-25T01:57:30.459Z,100121.00
2018-03-25T02:00:04.928Z,100126.00
2018-03-25T02:02:40.193Z,100127.63
2018-03-25T02:05:15.710Z,100126.92
2018-03-25T02:07:51.151Z,100129.46
2018-03-25T02:10:26.086Z,100131.61
2018-03-25T02:13:01.413Z,100122.11
2018-03-25T02:15:36.266Z,100125.11
2018-03-25T02:18:11.334Z,100125.37
2018-03-25T02:20:46.268Z,100118.37
2018-03-25T02:23:21.350Z,100124.67
2018-03-25T02:25:56.515Z,100125.16
2018-03-25T02:28:31.481Z,100128.27
2018-03-25T02:31:06.715Z,100128.21
2018-03-25T02:33:41.402Z,100123.28
2018-03-25T02:36:16.395Z,100131.63
2018-03-25T02:38:51.473Z,100131.31
2018-03-25T02:41:26.218Z,100132.13
2018-03-25T02:44:01.543Z,100135.28
2018-03-25T02:46:36.095Z,100139.48
2018-03-25T02:49:11.487Z,100141.97
2018-03-25T02:51:46.468Z,100144.77
2018-03-25T02:54:21.590Z,100135.07
2018-03-25T02:56:56.539Z,100144.20
2018-03-25T02:59:31.541Z,100142.75
2018-03-25T03:02:06.398Z,100143.43
2018-03-25T03:04:41.280Z,100144.00
2018-03-25T03:07:16.441Z,100148.38
2018-03-25T03:09:51.326Z,100154.00
2018-03-25T03:12:26.170Z,100158.73
2018-03-25T03:15:01.660Z,100156.61
2018-03-25T03:17:36.726Z,100109.42
2018-03-25T03:20:12.183Z,100159.58
2018-03-25T03:22:46.655Z,100165.98
2018-03-25T03:25:21.529Z,100163.88
2018-03-25T03:27:57.223Z,100163.05
2018-03-25T03:30:31.684Z,100175.55
2018-03-25T03:33:06.684Z,100168.09
2018-03-25T03:35:41.468Z,100174.58
2018-03-25T03:38:16.220Z,100175.80
2018-03-25T03:40:51.317Z,100171.36
2018-03-25T03:43:26.232Z,100170.73
2018-03-25T03:46:01.633Z,100171.29
2018-03-25T03:48:36.367Z,100174.85
2018-03-25T03:51:11.355Z,100183.02
2018-03-25T03:53:46.352Z,100177.94
2018-03-25T03:56:21.510Z,100176.22
2018-03-25T03:58:56.356Z,100182.69
2018-03-25T04:01:30.945Z,100182.98
2018-03-25T04:04:06.521Z,100181.32
2018-03-25T04:06:40.875Z,100193.53
2018-03-25T04:09:15.873Z,100191.70
2018-03-25T04:11:50.398Z,100191.52
2018-03-25T04:14:25.419Z,100196.58
2018-03-25T04:17:01.303Z,100195.69
2018-03-25T04:19:36.385Z,100203.14
2018-03-25T04:22:11.005Z,100201.35
2018-03-25T04:24:45.758Z,100200.53
2018-03-25T04:27:20.644Z,100202.21
2018-03-25T04:29:55.536Z,100194.28
2018-03-25T04:32:30.525Z,100201.06
2018-03-25T04:35:05.688Z,100202.78
2018-03-25T04:37:40.398Z,100210.93
2018-03-25T04:40:15.669Z,100208.31
2018-03-25T04:42:50.768Z,100206.48
2018-03-25T04:45:25.738Z,100203.98
2018-03-25T04:48:01.858Z,100202.23
2018-03-25T04:50:36.749Z,100200.58
2018-03-25T04:53:11.808Z,100199.53
2018-03-25T04:55:46.665Z,100193.21
2018-03-25T04:58:21.481Z,100200.08
2018-03-25T05:00:56.651Z,100196.03
2018-03-25T05:03:31.594Z,100200.85
2018-03-25T05:06:06.603Z,100199.92
2018-03-25T05:08:41.684Z,100191.81
2018-03-25T05:11:16.782Z,100199.25
2018-03-25T05:13:51.495Z,100193.89
2018-03-25T05:16:26.478Z,100197.89
2018-03-25T05:19:01.939Z,100209.42
2018-03-25T05:21:37.554Z,100210.07
2018-03-25T05:24:12.017Z,100213.02
2018-03-25T05:26:47.558Z,100210.97
2018-03-25T05:29:22.334Z,100214.81
2018-03-25T05:31:57.616Z,100218.44
2018-03-25T05:34:32.606Z,100216.48
2018-03-25T05:37:07.412Z,100217.56
2018-03-25T05:39:42.660Z,100217.72
2018-03-25T05:42:17.810Z,100218.44
2018-03-25T05:44:52.711Z,100224.37
2018-03-25T05:47:27.642Z,100224.80
2018-03-25T05:50:02.920Z,100230.40
2018-03-25T05:52:37.857Z,100231.66
2018-03-25T05:55:13.094Z,100229.08
2018-03-25T05:57:47.726Z,100237.17
2018-03-25T06:00:22.702Z,100241.78
2018-03-25T06:02:57.334Z,100247.77
2018-03-25T06:05:32.665Z,100242.10
2018-03-25T06:08:07.717Z,100250.88
2018-03-25T06:10:42.646Z,100253.88
2018-03-25T06:13:17.839Z,100253.04
2018-03-25T06:15:52.677Z,100256.44
2018-03-25T06:18:27.839Z,100256.90
2018-03-25T06:21:02.816Z,100259.59
2018-03-25T06:23:37.897Z,100261.90
2018-03-25T06:26:12.830Z,100266.78
2018-03-25T06:28:47.652Z,100266.90
2018-03-25T06:31:22.106Z,100278.60
2018-03-25T06:33:56.835Z,100281.41
2018-03-25T06:36:31.971Z,100283.91
2018-03-25T06:39:07.177Z,100281.98
2018-03-25T06:41:41.734Z,100281.72
2018-03-25T06:44:17.618Z,100284.77
2018-03-25T06:46:52.738Z,100286.03
2018-03-25T06:49:27.744Z,100291.56
2018-03-25T06:52:02.720Z,100294.46
2018-03-25T06:54:37.390Z,100297.52
2018-03-25T06:57:12.726Z,100303.32
2018-03-25T06:59:47.606Z,100305.78
2018-03-25T07:02:22.416Z,100308.86
2018-03-25T07:04:57.758Z,100318.07
2018-03-25T07:07:32.177Z,100309.27
2018-03-25T07:10:07.143Z,100310.95
2018-03-25T07:12:41.882Z,100315.06
2018-03-25T07:15:17.105Z,100322.14
2018-03-25T07:17:51.948Z,100315.58
2018-03-25T07:20:27.139Z,100321.87
2018-03-25T07:23:02.131Z,100320.50
2018-03-25T07:25:36.757Z,100328.64
2018-03-25T07:28:12.291Z,100327.49
2018-03-25T07:30:47.250Z,100334.17
2018-03-25T07:33:22.307Z,100331.09
2018-03-25T07:35:58.105Z,100331.50
2018-03-25T07:38:32.751Z,100333.55
2018-03-25T07:41:08.139Z,100333.48
2018-03-25T07:43:42.808Z,100340.98
2018-03-25T07:46:18.078Z,100348.06
2018-03-25T07:48:53.418Z,100343.70
2018-03-25T07:51:28.570Z,100345.05
2018-03-25T07:54:03.352Z,100348.53
2018-03-25T07:56:38.207Z,100346.94
2018-03-25T07:59:13.488Z,100351.22
2018-03-25T08:01:48.145Z,100350.53
2018-03-25T08:04:24.032Z,100356.64
2018-03-25T08:06:59.323Z,100361.41
2018-03-25T08:09:34.813Z,100364.17
2018-03-25T08:12:09.843Z,100368.20
2018-03-25T08:14:44.843Z,100363.84
2018-03-25T08:17:19.982Z,100370.11
2018-03-25T08:19:54.974Z,100370.62
2018-03-25T08:22:29.871Z,100368.43
2018-03-25T08:25:04.213Z,100371.67
2018-03-25T08:27:39.589Z,100372.19
2018-03-25T08:30:14.923Z,100376.19
2018-03-25T08:32:49.894Z,100381.09
2018-03-25T08:35:24.802Z,100381.42
2018-03-25T08:38:00.129Z,100388.31
2018-03-25T08:40:34.938Z,100385.83
2018-03-25T08:43:10.176Z,100383.30
2018-03-25T08:45:44.859Z,100391.89
2018-03-25T08:48:19.678Z,100394.59
2018-03-25T08:50:54.548Z,100394.07
2018-03-25T08:53:29.847Z,100393.82
2018-03-25T08:56:04.473Z,100388.55
2018-03-25T08:58:39.504Z,100386.02
2018-03-25T09:01:14.570Z,100383.78
2018-03-25T09:03:49.328Z,100390.86
2018-03-25T09:06:24.356Z,100393.30
2018-03-25T09:08:59.221Z,100390.72
2018-03-25T09:11:34.104Z,100397.28
2018-03-25T09:14:09.540Z,100392.44
2018-03-25T09:16:44.846Z,100393.31
2018-03-25T09:19:19.353Z,100400.86
2018-03-25T09:21:53.658Z,100396.22
2018-03-25T09:24:29.152Z,100400.39
2018-03-25T09:27:04.252Z,100400.30
2018-03-25T09:29:39.099Z,100399.79
2018-03-25T09:32:14.183Z,100401.38
2018-03-25T09:34:49.095Z,100403.50
2018-03-25T09:37:24.031Z,100407.42
2018-03-25T09:39:59.711Z,100410.55
2018-03-25T09:42:36.220Z,100400.29
2018-03-25T09:45:11.566Z,100407.97
2018-03-25T09:47:46.418Z,100409.09
2018-03-25T09:50:22.522Z,100413.50
2018-03-25T09:52:57.456Z,100414.66
2018-03-25T09:55:32.158Z,100422.83
2018-03-25T09:58:07.282Z,100418.09
2018-03-25T10:00:41.836Z,100426.57
2018-03-25T10:03:32.725Z,100426.34
2018-03-25T10:06:07.987Z,100430.80
2018-03-25T10:08:42.608Z,100429.35
2018-03-25T10:11:17.370Z,100422.61
2018-03-25T10:13:52.387Z,100427.03
2018-03-25T10:16:27.298Z,100423.14
2018-03-25T10:19:01.962Z,100426.28
2018-03-25T10:21:37.330Z,100425.77
2018-03-25T10:27:21.432Z,100438.16
2018-03-25T10:29:56.169Z,100429.25
2018-03-25T10:32:31.267Z,100435.03
2018-03-25T10:35:06.086Z,100436.28
2018-03-25T10:37:41.263Z,100434.49
2018-03-25T10:40:16.435Z,100435.46
2018-03-25T10:42:51.362Z,100438.25
2018-03-25T10:45:26.279Z,100428.73
2018-03-25T10:48:02.569Z,100435.11
2018-03-25T10:50:37.332Z,100425.61
2018-03-25T10:53:11.908Z,100432.63
2018-03-25T10:55:46.847Z,100428.88
2018-03-25T10:58:21.656Z,100435.33
2018-03-25T11:00:56.626Z,100434.19
2018-03-25T11:03:31.663Z,100436.81
2018-03-25T11:06:06.435Z,100435.92
2018-03-25T11:08:41.622Z,100437.33
2018-03-25T11:11:16.376Z,100432.95
2018-03-25T11:13:51.572Z,100439.59
2018-03-25T11:16:26.512Z,100439.19
2018-03-25T11:19:01.464Z,100438.77
2018-03-25T11:21:35.820Z,100426.34
2018-03-25T11:24:10.508Z,100444.35
2018-03-25T11:26:45.599Z,100436.42
2018-03-25T11:29:20.643Z,100442.27
2018-03-25T11:31:55.462Z,100438.85
2018-03-25T11:34:30.339Z,100432.63
2018-03-25T11:37:05.779Z,100435.28
2018-03-25T11:39:40.384Z,100439.63
2018-03-25T11:42:15.385Z,100438.20
2018-03-25T11:44:49.957Z,100433.86
2018-03-25T11:47:24.780Z,100439.41
2018-03-25T11:49:59.643Z,100438.11
2018-03-25T11:52:34.324Z,100435.27
2018-03-25T11:55:09.340Z,100439.67
2018-03-25T11:57:44.492Z,100442.08
2018-03-25T12:00:19.586Z,100447.07
2018-03-25T12:02:54.636Z,100449.77
2018-03-25T12:05:29.518Z,100445.65
2018-03-25T12:08:04.357Z,100457.03
2018-03-25T12:10:39.340Z,100451.45
2018-03-25T12:13:14.586Z,100452.12
2018-03-25T12:15:49.155Z,100453.67
2018-03-25T12:18:24.403Z,100457.37
2018-03-25T12:20:59.527Z,100457.20
2018-03-25T12:23:34.521Z,100452.34
2018-03-25T12:26:09.447Z,100446.64
2018-03-25T12:28:44.398Z,100450.71
2018-03-25T12:31:19.451Z,100442.95
2018-03-25T12:33:54.523Z,100455.94
2018-03-25T12:36:29.466Z,100452.47
2018-03-25T12:39:03.623Z,100448.98
2018-03-25T12:41:39.172Z,100450.92
2018-03-25T12:44:13.870Z,100447.25
2018-03-25T12:46:48.730Z,100439.16
2018-03-25T12:49:23.688Z,100440.58
2018-03-25T12:51:58.503Z,100442.98
2018-03-25T12:54:33.344Z,100437.84
2018-03-25T12:57:08.247Z,100438.86
2018-03-25T12:59:42.803Z,100440.28
2018-03-25T13:02:17.927Z,100438.56
2018-03-25T13:04:52.605Z,100441.93
2018-03-25T13:07:27.682Z,100438.28
2018-03-25T13:10:02.627Z,100434.18
2018-03-25T13:12:37.535Z,100434.95
2018-03-25T13:15:12.773Z,100439.08
2018-03-25T13:17:47.776Z,100443.47
2018-03-25T13:20:22.575Z,100439.77
2018-03-25T13:22:57.624Z,100439.91
2018-03-25T13:25:31.965Z,100447.83
2018-03-25T13:28:07.201Z,100444.48
2018-03-25T13:30:41.515Z,100454.56
2018-03-25T13:33:16.873Z,100443.17
2018-03-25T13:35:51.411Z,100440.55
2018-03-25T13:38:26.240Z,100445.55
2018-03-25T13:41:01.112Z,100445.24
2018-03-25T13:43:35.986Z,100440.59
2018-03-25T13:46:10.939Z,100442.92
2018-03-25T13:48:45.716Z,100436.48
2018-03-25T13:51:20.436Z,100440.20
2018-03-25T13:53:55.132Z,100447.70
2018-03-25T13:56:29.923Z,100442.80
2018-03-25T13:59:11.144Z,100438.73
2018-03-25T14:01:45.612Z,100436.86
2018-03-25T14:04:20.120Z,100432.38
2018-03-25T14:06:54.924Z,100426.42
2018-03-25T14:09:29.626Z,100432.20
2018-03-25T14:12:04.384Z,100429.20
2018-03-25T14:14:38.869Z,100425.26
2018-03-25T14:17:13.932Z,100424.11
2018-03-25T14:19:48.799Z,100421.47
2018-03-25T14:22:23.778Z,100426.66
2018-03-25T14:25:04.354Z,100417.25
2018-03-25T14:27:39.835Z,100422.23
2018-03-25T14:30:15.207Z,100427.64
2018-03-25T14:32:49.859Z,100426.47
2018-03-25T14:35:24.856Z,100431.39
2018-03-25T14:37:59.999Z,100432.74
2018-03-25T14:40:34.849Z,100434.37
2018-03-25T14:43:09.971Z,100429.45
2018-03-25T14:45:44.982Z,100436.58
2018-03-25T14:48:20.210Z,100434.25
2018-03-25T14:50:55.191Z,100436.52
2018-03-25T14:53:29.835Z,100436.73
2018-03-25T14:56:04.523Z,100441.59
2018-03-25T14:58:39.704Z,100445.14
2018-03-25T15:01:14.671Z,100443.45
2018-03-25T15:03:50.779Z,100446.34
2018-03-25T15:06:25.210Z,100452.92
2018-03-25T15:09:01.055Z,100450.42
2018-03-25T15:11:36.072Z,100447.34
2018-03-25T15:14:10.944Z,100446.33
2018-03-25T15:16:45.949Z,100449.30
2018-03-25T15:19:21.147Z,100453.33
2018-03-25T15:21:56.122Z,100455.59
2018-03-25T15:24:31.170Z,100449.89
2018-03-25T15:27:05.950Z,100448.33
2018-03-25T15:29:40.922Z,100458.16
2018-03-25T15:32:16.124Z,100450.80
2018-03-25T15:34:51.628Z,100445.83
2018-03-25T15:37:26.960Z,100448.55
2018-03-25T15:40:02.815Z,100448.79
2018-03-25T15:42:37.832Z,100448.52
2018-03-25T15:45:12.679Z,100446.40
2018-03-25T15:47:47.958Z,100449.59
2018-03-25T15:50:22.940Z,100452.26
2018-03-25T15:52:57.848Z,100454.84
2018-03-25T15:55:33.012Z,100456.50
2018-03-25T15:58:08.204Z,100459.80
2018-03-25T16:00:42.642Z,100460.44
2018-03-25T16:03:17.911Z,100459.16
2018-03-25T16:05:52.871Z,100458.80
2018-03-25T16:08:27.413Z,100457.32
2018-03-25T16:11:03.257Z,100461.42
2018-03-25T16:13:38.786Z,100458.92
2018-03-25T16:16:13.461Z,100458.00
2018-03-25T16:18:48.933Z,100461.50
2018-03-25T16:21:23.147Z,100461.34
2018-03-25T16:23:58.292Z,100462.77
2018-03-25T16:26:33.353Z,100461.78
2018-03-25T16:29:21.187Z,100466.91
2018-03-25T16:31:56.091Z,100469.97
2018-03-25T16:34:30.952Z,100472.31
2018-03-25T16:37:06.287Z,100470.22
2018-03-25T16:39:40.802Z,100471.91
2018-03-25T16:42:16.218Z,100474.39
2018-03-25T16:44:51.083Z,100477.65
2018-03-25T16:47:25.551Z,100478.44
2018-03-25T16:50:00.920Z,100472.84
2018-03-25T16:52:35.488Z,100479.28
2018-03-25T16:55:10.401Z,100478.28
2018-03-25T16:57:45.382Z,100483.69
2018-03-25T17:00:20.388Z,100489.66
2018-03-25T17:02:55.248Z,100498.40
2018-03-25T17:05:30.173Z,100494.64
2018-03-25T17:08:04.787Z,100497.16
2018-03-25T17:10:39.373Z,100503.33
2018-03-25T17:13:16.705Z,100507.94
2018-03-25T17:15:52.068Z,100503.04
2018-03-25T17:18:26.995Z,100500.80
2018-03-25T17:21:03.099Z,100503.52
2018-03-25T17:23:38.372Z,100509.39
2018-03-25T17:26:13.307Z,100508.61
2018-03-25T17:28:47.964Z,100509.36
2018-03-25T17:31:23.041Z,100514.92
2018-03-25T17:33:58.075Z,100517.30
2018-03-25T17:36:33.088Z,100520.23
2018-03-25T17:39:07.088Z,100519.31
2018-03-25T17:41:41.989Z,100523.53
2018-03-25T17:44:17.359Z,100530.27
2018-03-25T17:46:52.124Z,100531.71
2018-03-25T17:49:26.826Z,100528.37
2018-03-25T17:52:03.270Z,100536.42
2018-03-25T17:54:38.113Z,100539.94
2018-03-25T17:57:13.356Z,100541.22
2018-03-25T17:59:47.826Z,100543.52
2018-03-25T18:02:22.659Z,100547.21
2018-03-25T18:04:58.139Z,100547.33
2018-03-25T18:07:32.520Z,100547.14
2018-03-25T18:10:07.138Z,100548.77
2018-03-25T18:12:42.161Z,100557.37
2018-03-25T18:15:17.192Z,100556.28
2018-03-25T18:17:51.835Z,100565.05
2018-03-25T18:20:26.605Z,100566.37
2018-03-25T18:23:01.728Z,100570.83
2018-03-25T18:25:36.591Z,100576.48
2018-03-25T18:28:11.481Z,100580.58
2018-03-25T18:30:46.532Z,100588.29
2018-03-25T18:33:21.656Z,100587.83
2018-03-25T18:35:56.581Z,100594.95
2018-03-25T18:38:31.828Z,100599.02
2018-03-25T18:41:07.191Z,100597.85
2018-03-25T18:43:42.353Z,100598.03
2018-03-25T18:46:17.383Z,100610.63
2018-03-25T18:48:52.212Z,100604.11
2018-03-25T18:51:27.203Z,100604.37
2018-03-25T18:54:03.381Z,100608.55
2018-03-25T18:56:38.412Z,100608.33
2018-03-25T18:59:13.384Z,100614.76
2018-03-25T19:01:48.239Z,100615.77
2018-03-25T19:04:23.334Z,100613.70
2018-03-25T19:06:58.446Z,100612.97
2018-03-25T19:09:33.336Z,100619.52
2018-03-25T19:12:08.472Z,100616.78
2018-03-25T19:14:43.379Z,100619.59
2018-03-25T19:17:17.868Z,100625.94
2018-03-25T19:19:52.820Z,100622.86
2018-03-25T19:22:28.196Z,100634.60
2018-03-25T19:25:03.779Z,100634.36
2018-03-25T19:27:39.051Z,100631.36
2018-03-25T19:30:13.711Z,100639.81
2018-03-25T19:32:48.831Z,100640.28
2018-03-25T19:35:23.764Z,100637.53
2018-03-25T19:37:58.748Z,100634.60
2018-03-25T19:40:33.767Z,100639.91
2018-03-25T19:43:08.741Z,100640.26
2018-03-25T19:45:43.180Z,100634.19
2018-03-25T19:48:18.715Z,100639.27
2018-03-25T19:50:53.094Z,100633.51
2018-03-25T19:53:28.411Z,100635.98
2018-03-25T19:56:03.743Z,100634.13
2018-03-25T19:58:39.343Z,100637.63
2018-03-25T20:01:15.383Z,100638.29
2018-03-25T20:03:50.849Z,100636.92
2018-03-25T20:06:25.915Z,100641.87
2018-03-25T20:09:01.445Z,100645.06
2018-03-25T20:11:36.078Z,100648.13
2018-03-25T20:14:11.652Z,100644.09
2018-03-25T20:16:46.460Z,100640.96
2018-03-25T20:19:21.389Z,100645.50
2018-03-25T20:21:56.569Z,100649.01
2018-03-25T20:24:31.156Z,100653.83
2018-03-25T20:27:06.725Z,100654.62
2018-03-25T20:29:41.732Z,100654.47
2018-03-25T20:32:16.862Z,100658.19
2018-03-25T20:34:52.511Z,100664.79
2018-03-25T20:37:28.609Z,100662.91
2018-03-25T20:40:03.805Z,100663.38
2018-03-25T20:42:38.555Z,100665.89
2018-03-25T20:45:13.816Z,100670.20
2018-03-25T20:47:49.237Z,100669.05
2018-03-25T20:53:21.893Z,100673.82
2018-03-25T20:55:57.419Z,100674.20
2018-03-25T20:58:32.067Z,100675.60
2018-03-25T21:01:06.951Z,100677.08
2018-03-25T21:03:41.802Z,100670.69
2018-03-25T21:06:16.826Z,100681.66
2018-03-25T21:08:51.983Z,100682.88
2018-03-25T21:11:26.951Z,100684.56
2018-03-25T21:14:02.414Z,100676.17
2018-03-25T21:16:37.046Z,100680.57
2018-03-25T21:19:11.898Z,100676.54
2018-03-25T21:21:46.581Z,100679.69
2018-03-25T21:24:21.653Z,100681.75
2018-03-25T21:26:57.138Z,100690.84
2018-03-25T21:29:32.158Z,100686.09
2018-03-25T21:32:07.103Z,100687.76
2018-03-25T21:34:42.619Z,100687.00
2018-03-25T21:37:17.746Z,100689.11
2018-03-25T21:39:53.004Z,100692.95
2018-03-25T21:42:28.044Z,100691.30
2018-03-25T21:45:03.455Z,100694.30
2018-03-25T21:47:38.310Z,100699.92
2018-03-25T21:50:13.790Z,100695.44
2018-03-25T21:52:48.786Z,100695.92
2018-03-25T21:55:23.786Z,100696.70
2018-03-25T21:57:58.789Z,100693.12
2018-03-25T22:00:33.654Z,100701.00
2018-03-25T22:03:07.965Z,100694.81
2018-03-25T22:05:42.927Z,100699.80
2018-03-25T22:08:17.993Z,100701.86
2018-03-25T22:10:52.802Z,100706.53
2018-03-25T22:13:27.725Z,100703.59
2018-03-25T22:16:03.740Z,100703.28
2018-03-25T22:18:50.145Z,100709.94
2018-03-25T22:21:24.888Z,100709.72
2018-03-25T22:24:00.072Z,100706.45
2018-03-25T22:26:34.855Z,100705.69
2018-03-25T22:29:09.956Z,100707.16
2018-03-25T22:31:45.137Z,100700.59
2018-03-25T22:34:19.794Z,100703.59
2018-03-25T22:36:54.832Z,100712.94
2018-03-25T22:39:30.036Z,100709.16
2018-03-25T22:42:04.967Z,100722.39
2018-03-25T22:44:39.875Z,100713.16
2018-03-25T22:47:15.032Z,100708.03
2018-03-25T22:49:49.731Z,100711.50
2018-03-25T22:52:24.793Z,100715.59
2018-03-25T22:54:59.351Z,100714.75
2018-03-25T22:57:34.403Z,100717.91
2018-03-25T23:00:09.478Z,100714.84
2018-03-25T23:02:44.300Z,100715.98
2018-03-25T23:05:19.289Z,100720.55
2018-03-25T23:07:54.368Z,100713.89
2018-03-25T23:10:29.562Z,100724.58
2018-03-25T23:13:04.218Z,100717.72
2018-03-25T23:15:39.073Z,100715.04
2018-03-25T23:18:14.050Z,100719.66
2018-03-25T23:20:48.927Z,100719.92
2018-03-25T23:23:23.866Z,100715.48
2018-03-25T23:25:58.866Z,100713.33
2018-03-25T23:28:33.925Z,100710.97
2018-03-25T23:31:08.847Z,100716.98
2018-03-25T23:33:43.402Z,100706.74
2018-03-25T23:36:18.386Z,100711.61
2018-03-25T23:38:53.451Z,100715.07
2018-03-25T23:41:28.391Z,100713.72
2018-03-25T23:44:04.219Z,100711.48
2018-03-25T23:46:38.898Z,100719.09
2018-03-25T23:49:13.826Z,100714.16
2018-03-25T23:51:48.864Z,100715.89
2018-03-25T23:54:23.946Z,100720.82
2018-03-25T23:56:58.765Z,100719.16
2018-03-25T23:59:33.963Z,100723.30
